Denton, Texas
Current Conditions -  °F | °C
As of 11:53 AM on Monday 22 Dec 2014 (Local Time) from KDTO Reporting Station
Clear Clear  
Wind Chill: 59°   Ceiling: Unl
Heat Index: 59°   Visibility: 10mi
Dew Point: 42°   Wind: 13mph
Humidity: 53%   Direction: 270°W
Pressure: 29.58"   Gusts: NA
Location:  33.22°N, 97.13°W
Report Text: KDTO 221753Z 27011KT 10SM CLR 15/06 A2958 RMK AO2 SLP013 T01500056 10156 20083 58002
Loading
Personal Weather Stations






























Interactive Weather Map New forecast layout! Learn more

10-Day Weather Forecast

Advertisements
Track Severe Weather on mobile